createdAt,value
2018-04-29T00:01:50.659Z,5.20
2018-04-29T00:04:19.066Z,3.90
2018-04-29T00:06:47.350Z,5.00
2018-04-29T00:09:15.621Z,4.00
2018-04-29T00:11:43.894Z,2.70
2018-04-29T00:14:12.166Z,3.23
2018-04-29T00:16:40.453Z,3.13
2018-04-29T00:19:08.725Z,3.90
2018-04-29T00:21:37.782Z,4.90
2018-04-29T00:24:06.074Z,5.37
2018-04-29T00:26:34.425Z,5.40
2018-04-29T00:29:02.687Z,3.23
2018-04-29T00:31:31.022Z,2.77
2018-04-29T00:33:59.891Z,2.90
2018-04-29T00:36:28.218Z,3.30
2018-04-29T00:38:56.481Z,4.40
2018-04-29T00:41:24.824Z,3.30
2018-04-29T00:43:53.078Z,5.40
2018-04-29T00:46:21.326Z,2.80
2018-04-29T00:48:49.597Z,2.73
2018-04-29T00:51:17.863Z,7.03
2018-04-29T00:53:46.245Z,5.17
2018-04-29T00:56:14.517Z,3.97
2018-04-29T00:58:42.795Z,3.47
2018-04-29T01:01:11.054Z,2.77
2018-04-29T01:03:39.345Z,4.43
2018-04-29T01:06:07.605Z,5.63
2018-04-29T01:08:35.883Z,3.27
2018-04-29T01:11:04.158Z,2.90
2018-04-29T01:13:32.479Z,2.97
2018-04-29T01:16:00.717Z,3.70
2018-04-29T01:18:28.993Z,3.17
2018-04-29T01:20:57.292Z,4.00
2018-04-29T01:23:25.562Z,4.33
2018-04-29T01:25:53.882Z,3.50
2018-04-29T01:28:22.176Z,5.80
2018-04-29T01:30:50.437Z,3.53
2018-04-29T01:33:18.847Z,4.57
2018-04-29T01:35:47.090Z,3.53
2018-04-29T01:38:15.361Z,5.17
2018-04-29T01:40:43.627Z,2.67
2018-04-29T01:43:11.922Z,2.60
2018-04-29T01:45:40.166Z,9.40
2018-04-29T01:48:08.446Z,5.20
2018-04-29T01:50:36.718Z,4.80
2018-04-29T01:53:04.986Z,4.10
2018-04-29T01:55:33.271Z,3.20
2018-04-29T01:58:01.540Z,6.70
2018-04-29T02:00:29.806Z,3.80
2018-04-29T02:02:58.066Z,3.00
2018-04-29T02:05:26.342Z,3.23
2018-04-29T02:07:54.601Z,5.77
2018-04-29T02:10:22.901Z,2.60
2018-04-29T02:12:51.169Z,5.90
2018-04-29T02:15:19.451Z,3.57
2018-04-29T02:17:47.699Z,5.27
2018-04-29T02:20:16.001Z,3.37
2018-04-29T02:22:44.242Z,2.60
2018-04-29T02:25:12.832Z,4.67
2018-04-29T02:27:41.102Z,3.00
2018-04-29T02:30:09.386Z,4.53
2018-04-29T02:32:37.636Z,6.13
2018-04-29T02:35:05.914Z,3.40
2018-04-29T02:37:34.339Z,6.00
2018-04-29T02:40:02.582Z,2.87
2018-04-29T02:42:30.861Z,2.80
2018-04-29T02:44:59.124Z,9.03
2018-04-29T02:47:27.398Z,3.93
2018-04-29T02:49:55.671Z,4.70
2018-04-29T02:52:23.960Z,6.53
2018-04-29T02:54:53.268Z,3.20
2018-04-29T02:57:21.571Z,5.37
2018-04-29T02:59:50.342Z,2.90
2018-04-29T03:02:18.644Z,3.30
2018-04-29T03:04:46.882Z,7.23
2018-04-29T03:07:15.161Z,3.30
2018-04-29T03:09:43.437Z,2.97
2018-04-29T03:12:11.713Z,5.83
2018-04-29T03:14:39.986Z,4.27
2018-04-29T03:17:08.274Z,2.50
2018-04-29T03:19:36.540Z,4.10
2018-04-29T03:22:04.807Z,4.37
2018-04-29T03:24:33.109Z,3.90
2018-04-29T03:27:01.378Z,3.37
2018-04-29T03:29:29.673Z,3.20
2018-04-29T03:31:57.926Z,2.60
2018-04-29T03:34:26.212Z,3.97
2018-04-29T03:36:54.480Z,2.63
2018-04-29T03:39:22.773Z,3.63
2018-04-29T03:41:51.038Z,3.00
2018-04-29T03:44:19.339Z,3.47
2018-04-29T03:46:47.609Z,4.50
2018-04-29T03:49:15.889Z,3.30
2018-04-29T03:51:44.172Z,3.20
2018-04-29T03:54:12.465Z,3.80
2018-04-29T03:56:40.717Z,3.93
2018-04-29T03:59:20.776Z,3.70
2018-04-29T04:02:00.844Z,5.03
2018-04-29T04:04:29.124Z,3.87
2018-04-29T04:06:57.405Z,3.40
2018-04-29T04:09:25.682Z,5.33
2018-04-29T04:11:53.931Z,5.70
2018-04-29T04:14:22.217Z,5.50
2018-04-29T04:16:50.497Z,4.50
2018-04-29T04:19:18.805Z,4.00
2018-04-29T04:21:47.144Z,3.90
2018-04-29T04:24:15.718Z,3.53
2018-04-29T04:26:44.041Z,5.67
2018-04-29T04:29:12.303Z,4.07
2018-04-29T04:31:40.594Z,5.33
2018-04-29T04:34:08.915Z,4.37
2018-04-29T04:36:37.142Z,5.33
2018-04-29T04:39:05.390Z,10.07
2018-04-29T04:41:33.694Z,4.37
2018-04-29T04:44:02.870Z,5.50
2018-04-29T04:46:31.147Z,5.30
2018-04-29T04:48:59.428Z,5.73
2018-04-29T04:51:27.708Z,4.20
2018-04-29T04:53:55.960Z,8.57
2018-04-29T04:56:24.232Z,4.87
2018-04-29T04:58:52.516Z,6.40
2018-04-29T05:01:20.787Z,7.50
2018-04-29T05:03:49.082Z,8.07
2018-04-29T05:06:17.386Z,6.20
2018-04-29T05:08:45.634Z,8.97
2018-04-29T05:11:13.914Z,8.07
2018-04-29T05:13:42.250Z,8.20
2018-04-29T05:16:10.463Z,5.70
2018-04-29T05:18:38.745Z,9.73
2018-04-29T05:21:07.001Z,9.40
2018-04-29T05:23:35.421Z,6.27
2018-04-29T05:26:03.657Z,4.00
2018-04-29T05:28:32.152Z,5.50
2018-04-29T05:31:00.416Z,4.70
2018-04-29T05:33:28.701Z,6.30
2018-04-29T05:35:56.975Z,5.30
2018-04-29T05:38:25.252Z,5.90
2018-04-29T05:40:53.522Z,7.40
2018-04-29T05:43:21.796Z,8.10
2018-04-29T05:45:50.079Z,6.20
2018-04-29T05:48:18.350Z,7.07
2018-04-29T05:50:47.151Z,6.83
2018-04-29T05:53:15.421Z,6.27
2018-04-29T05:55:43.704Z,6.30
2018-04-29T05:58:11.986Z,9.10
2018-04-29T06:00:40.286Z,12.43
2018-04-29T06:03:08.527Z,6.37
2018-04-29T06:05:37.635Z,6.60
2018-04-29T06:08:05.902Z,8.53
2018-04-29T06:10:34.202Z,8.40
2018-04-29T06:13:02.612Z,8.27
2018-04-29T06:15:30.916Z,13.57
2018-04-29T06:17:59.176Z,7.90
2018-04-29T06:20:27.817Z,6.63
2018-04-29T06:22:56.028Z,8.47
2018-04-29T06:25:24.353Z,6.83
2018-04-29T06:27:52.706Z,7.47
2018-04-29T06:30:20.990Z,8.60
2018-04-29T06:32:49.265Z,6.67
2018-04-29T06:35:17.569Z,10.30
2018-04-29T06:37:45.847Z,7.17
2018-04-29T06:40:14.461Z,7.30
2018-04-29T06:42:42.746Z,9.27
2018-04-29T06:45:10.986Z,6.23
2018-04-29T06:47:39.277Z,6.10
2018-04-29T06:50:07.540Z,10.13
2018-04-29T06:52:35.873Z,12.43
2018-04-29T06:55:04.285Z,6.23
2018-04-29T06:57:32.586Z,9.27
2018-04-29T07:00:00.860Z,6.43
2018-04-29T07:02:29.136Z,8.30
2018-04-29T07:04:57.436Z,8.53
2018-04-29T07:07:25.719Z,7.77
2018-04-29T07:09:53.971Z,8.40
2018-04-29T07:12:22.251Z,11.53
2018-04-29T07:14:51.361Z,7.93
2018-04-29T07:17:19.640Z,12.53
2018-04-29T07:19:47.902Z,11.17
2018-04-29T07:22:16.195Z,10.17
2018-04-29T07:24:44.468Z,7.10
2018-04-29T07:27:12.750Z,10.93
2018-04-29T07:29:41.026Z,11.47
2018-04-29T07:32:09.346Z,12.53
2018-04-29T07:34:37.682Z,10.57
2018-04-29T07:37:05.978Z,12.60
2018-04-29T07:39:34.281Z,8.80
2018-04-29T07:42:02.535Z,11.67
2018-04-29T07:44:31.725Z,13.07
2018-04-29T07:47:00.002Z,8.23
2018-04-29T07:49:28.311Z,12.03
2018-04-29T07:51:57.330Z,9.33
2018-04-29T07:54:25.619Z,10.00
2018-04-29T07:56:53.913Z,7.57
2018-04-29T07:59:22.242Z,8.37
2018-04-29T08:01:51.801Z,12.17
2018-04-29T08:04:21.330Z,8.37
2018-04-29T08:06:50.279Z,12.33
2018-04-29T08:09:19.277Z,8.47
2018-04-29T08:11:54.544Z,11.20
2018-04-29T08:14:22.987Z,8.03
2018-04-29T08:16:51.250Z,11.73
2018-04-29T08:19:19.579Z,7.70
2018-04-29T08:21:48.006Z,10.50
2018-04-29T08:24:16.261Z,7.63
2018-04-29T08:26:44.568Z,9.53
2018-04-29T08:29:12.860Z,15.27
2018-04-29T08:31:41.143Z,12.17
2018-04-29T08:34:09.950Z,8.73
2018-04-29T08:36:38.244Z,7.43
2018-04-29T08:39:06.487Z,7.03
2018-04-29T08:41:34.810Z,6.60
2018-04-29T08:44:03.060Z,5.07
2018-04-29T08:46:31.334Z,5.40
2018-04-29T08:48:59.594Z,5.17
2018-04-29T08:51:27.879Z,7.40
2018-04-29T08:53:56.142Z,8.60
2018-04-29T08:56:24.421Z,6.43
2018-04-29T08:58:52.693Z,4.80
2018-04-29T09:01:20.976Z,5.03
2018-04-29T09:03:49.270Z,9.30
2018-04-29T09:06:17.546Z,4.87
2018-04-29T09:08:45.890Z,7.03
2018-04-29T09:11:14.402Z,4.97
2018-04-29T09:13:42.687Z,11.67
2018-04-29T09:16:11.011Z,8.87
2018-04-29T09:18:39.329Z,6.10
2018-04-29T09:21:07.589Z,6.13
2018-04-29T09:23:36.290Z,5.07
2018-04-29T09:26:04.540Z,6.13
2018-04-29T09:28:32.826Z,6.13
2018-04-29T09:31:01.090Z,7.47
2018-04-29T09:33:29.432Z,6.07
2018-04-29T09:35:57.677Z,8.10
2018-04-29T09:38:25.957Z,7.53
2018-04-29T09:40:54.255Z,5.90
2018-04-29T09:43:22.772Z,4.50
2018-04-29T09:45:51.433Z,5.13
2018-04-29T09:48:19.751Z,4.60
2018-04-29T09:50:48.066Z,5.37
2018-04-29T09:53:16.319Z,8.23
2018-04-29T09:55:45.363Z,5.80
2018-04-29T09:58:13.673Z,5.60
2018-04-29T10:00:47.626Z,7.10
2018-04-29T10:03:15.970Z,3.83
2018-04-29T10:05:44.204Z,9.20
2018-04-29T10:08:12.496Z,8.10
2018-04-29T10:10:40.798Z,5.73
2018-04-29T10:13:09.084Z,5.03
2018-04-29T10:15:37.397Z,4.67
2018-04-29T10:18:05.725Z,3.87
2018-04-29T10:20:34.038Z,6.43
2018-04-29T10:23:03.059Z,6.90
2018-04-29T10:25:31.338Z,5.40
2018-04-29T10:27:59.586Z,7.60
2018-04-29T10:30:27.923Z,5.87
2018-04-29T10:32:56.205Z,7.57
2018-04-29T10:35:24.517Z,5.37
2018-04-29T10:37:52.801Z,6.60
2018-04-29T10:40:21.084Z,6.00
2018-04-29T10:42:49.355Z,6.13
2018-04-29T10:45:17.667Z,4.00
2018-04-29T10:47:45.928Z,6.33
2018-04-29T10:50:14.222Z,9.80
2018-04-29T10:52:42.512Z,6.67
2018-04-29T10:55:10.823Z,4.43
2018-04-29T10:57:39.118Z,5.30
2018-04-29T11:00:07.383Z,6.93
2018-04-29T11:02:35.645Z,3.90
2018-04-29T11:05:04.055Z,4.43
2018-04-29T11:07:32.294Z,5.57
2018-04-29T11:10:00.586Z,9.23
2018-04-29T11:12:28.852Z,12.13
2018-04-29T11:14:57.121Z,7.10
2018-04-29T11:17:25.424Z,5.20
2018-04-29T11:19:53.677Z,5.80
2018-04-29T11:22:21.964Z,12.80
2018-04-29T11:24:50.326Z,7.87
2018-04-29T11:27:18.610Z,5.80
2018-04-29T11:29:46.890Z,4.03
2018-04-29T11:32:15.217Z,4.30
2018-04-29T11:34:43.476Z,5.23
2018-04-29T11:37:11.759Z,4.67
2018-04-29T11:39:40.031Z,5.03
2018-04-29T11:42:08.351Z,4.00
2018-04-29T11:44:36.617Z,6.33
2018-04-29T11:47:04.910Z,4.57
2018-04-29T11:49:33.177Z,8.27
2018-04-29T11:52:01.464Z,5.97
2018-04-29T11:54:29.731Z,13.23
2018-04-29T11:56:58.043Z,4.63
2018-04-29T11:59:26.299Z,10.03
2018-04-29T12:01:54.597Z,5.33
2018-04-29T12:04:22.862Z,8.70
2018-04-29T12:06:51.130Z,6.17
2018-04-29T12:09:19.418Z,4.60
2018-04-29T12:11:47.692Z,11.00
2018-04-29T12:14:16.000Z,8.20
2018-04-29T12:16:44.256Z,10.73
2018-04-29T12:19:12.541Z,5.17
2018-04-29T12:21:40.787Z,8.10
2018-04-29T12:24:09.076Z,5.87
2018-04-29T12:26:37.338Z,7.53
2018-04-29T12:29:05.627Z,5.97
2018-04-29T12:31:33.895Z,4.17
2018-04-29T12:34:02.166Z,9.10
2018-04-29T12:36:30.447Z,8.20
2018-04-29T12:38:58.767Z,10.20
2018-04-29T12:41:27.005Z,9.90
2018-04-29T12:43:55.318Z,4.57
2018-04-29T12:46:23.674Z,6.97
2018-04-29T12:48:51.939Z,7.27
2018-04-29T12:51:20.238Z,6.07
2018-04-29T12:53:48.499Z,9.20
2018-04-29T12:56:16.784Z,5.93
2018-04-29T12:58:45.090Z,6.30
2018-04-29T13:01:13.382Z,7.30
2018-04-29T13:03:41.625Z,7.53
2018-04-29T13:06:09.942Z,8.43
2018-04-29T13:08:38.208Z,5.67
2018-04-29T13:11:06.827Z,9.33
2018-04-29T13:13:35.112Z,10.57
2018-04-29T13:16:03.414Z,8.73
2018-04-29T13:18:31.684Z,7.90
2018-04-29T13:20:59.971Z,6.17
2018-04-29T13:23:28.269Z,7.20
2018-04-29T13:25:56.535Z,8.13
2018-04-29T13:28:24.867Z,8.40
2018-04-29T13:30:53.181Z,11.43
2018-04-29T13:33:21.511Z,10.67
2018-04-29T13:35:50.160Z,9.40
2018-04-29T13:38:18.854Z,7.53
2018-04-29T13:40:47.145Z,8.80
2018-04-29T13:43:15.443Z,10.30
2018-04-29T13:45:43.716Z,7.83
2018-04-29T13:48:12.097Z,8.93
2018-04-29T13:50:40.446Z,5.33
2018-04-29T13:53:08.762Z,6.20
2018-04-29T13:55:37.292Z,8.40
2018-04-29T13:58:05.889Z,11.37
2018-04-29T14:00:35.167Z,6.33
2018-04-29T14:03:03.973Z,6.73
2018-04-29T14:05:32.286Z,10.20
2018-04-29T14:08:00.997Z,7.60
2018-04-29T14:10:29.290Z,7.20
2018-04-29T14:12:57.560Z,7.03
2018-04-29T14:15:25.878Z,8.07
2018-04-29T14:17:54.149Z,5.70
2018-04-29T14:20:22.455Z,9.53
2018-04-29T14:22:50.707Z,7.53
2018-04-29T14:25:19.000Z,5.80
2018-04-29T14:27:47.293Z,8.23
2018-04-29T14:30:15.581Z,5.50
2018-04-29T14:32:44.679Z,5.33
2018-04-29T14:35:12.946Z,4.90
2018-04-29T14:37:41.210Z,6.50
2018-04-29T14:40:09.511Z,10.07
2018-04-29T14:42:37.763Z,7.13
2018-04-29T14:45:06.039Z,9.17
2018-04-29T14:47:34.333Z,11.67
2018-04-29T14:50:02.593Z,5.43
2018-04-29T14:52:30.882Z,11.60
2018-04-29T14:54:59.128Z,8.53
2018-04-29T14:57:28.210Z,6.53
2018-04-29T14:59:56.474Z,7.93
2018-04-29T15:02:24.765Z,10.03
2018-04-29T15:04:53.025Z,4.30
2018-04-29T15:07:21.331Z,7.20
2018-04-29T15:09:49.598Z,11.33
2018-04-29T15:12:17.919Z,9.77
2018-04-29T15:14:46.186Z,5.33
2018-04-29T15:17:14.508Z,7.30
2018-04-29T15:19:48.626Z,6.03
2018-04-29T15:22:16.926Z,8.40
2018-04-29T15:24:45.252Z,7.10
2018-04-29T15:27:13.567Z,6.43
2018-04-29T15:29:41.862Z,4.87
2018-04-29T15:32:10.133Z,4.83
2018-04-29T15:34:38.446Z,7.73
2018-04-29T15:37:06.746Z,7.47
2018-04-29T15:39:35.078Z,11.20
2018-04-29T15:42:03.407Z,8.67
2018-04-29T15:44:32.034Z,5.17
2018-04-29T15:47:00.294Z,4.33
2018-04-29T15:49:29.303Z,6.33
2018-04-29T15:51:57.561Z,7.80
2018-04-29T15:54:26.125Z,13.33
2018-04-29T15:56:54.419Z,5.80
2018-04-29T15:59:23.266Z,11.40
2018-04-29T16:01:51.562Z,15.70
2018-04-29T16:04:20.063Z,10.17
2018-04-29T16:06:48.323Z,12.60
2018-04-29T16:09:16.608Z,9.90
2018-04-29T16:11:44.961Z,14.00
2018-04-29T16:14:13.262Z,20.10
2018-04-29T16:16:41.574Z,10.30
2018-04-29T16:19:10.539Z,12.70
2018-04-29T16:21:38.904Z,11.73
2018-04-29T16:24:07.219Z,12.07
2018-04-29T16:26:35.569Z,12.17
2018-04-29T16:29:03.802Z,13.53
2018-04-29T16:31:32.125Z,10.63
2018-04-29T16:34:00.382Z,11.00
2018-04-29T16:36:28.668Z,10.57
2018-04-29T16:38:57.258Z,7.90
2018-04-29T16:41:25.560Z,10.33
2018-04-29T16:43:53.838Z,9.70
2018-04-29T16:46:22.211Z,7.13
2018-04-29T16:48:50.459Z,9.67
2018-04-29T16:51:18.748Z,9.63
2018-04-29T16:53:47.727Z,10.80
2018-04-29T16:56:16.120Z,7.70
2018-04-29T16:58:44.402Z,10.27
2018-04-29T17:01:13.530Z,9.17
2018-04-29T17:03:41.830Z,9.83
2018-04-29T17:06:10.084Z,9.43
2018-04-29T17:08:38.370Z,9.43
2018-04-29T17:11:07.646Z,10.83
2018-04-29T17:13:35.949Z,10.37
2018-04-29T17:16:04.202Z,8.80
2018-04-29T17:18:32.486Z,8.13
2018-04-29T17:21:00.819Z,11.00
2018-04-29T17:23:29.136Z,7.87
2018-04-29T17:25:57.381Z,9.00
2018-04-29T17:28:25.757Z,10.40
2018-04-29T17:30:54.511Z,8.80
2018-04-29T17:33:22.824Z,8.20
2018-04-29T17:35:51.123Z,9.30
2018-04-29T17:38:19.396Z,8.73
2018-04-29T17:40:47.688Z,12.07
2018-04-29T17:43:16.007Z,9.63
2018-04-29T17:45:44.293Z,10.60
2018-04-29T17:48:13.334Z,10.23
2018-04-29T17:50:41.622Z,8.60
2018-04-29T17:53:09.977Z,8.47
2018-04-29T17:55:38.317Z,10.57
2018-04-29T17:58:06.564Z,11.93
2018-04-29T18:00:34.902Z,6.90
2018-04-29T18:03:03.145Z,11.17
2018-04-29T18:05:31.474Z,11.93
2018-04-29T18:07:59.842Z,10.70
2018-04-29T18:10:28.100Z,9.00
2018-04-29T18:12:56.368Z,8.37
2018-04-29T18:15:24.654Z,7.23
2018-04-29T18:17:52.943Z,10.20
2018-04-29T18:20:21.218Z,9.17
2018-04-29T18:22:49.504Z,8.33
2018-04-29T18:25:17.780Z,7.37
2018-04-29T18:27:46.128Z,16.40
2018-04-29T18:30:14.409Z,11.60
2018-04-29T18:32:42.639Z,11.40
2018-04-29T18:35:10.969Z,8.07
2018-04-29T18:37:39.222Z,7.20
2018-04-29T18:40:07.560Z,16.93
2018-04-29T18:42:35.834Z,11.43
2018-04-29T18:45:04.101Z,14.33
2018-04-29T18:47:32.396Z,21.07
2018-04-29T18:50:01.005Z,8.10
2018-04-29T18:52:29.282Z,8.33
2018-04-29T18:54:57.618Z,12.00
2018-04-29T18:57:25.903Z,12.00
2018-04-29T18:59:54.230Z,9.27
2018-04-29T19:02:22.459Z,7.73
2018-04-29T19:04:50.792Z,16.93
2018-04-29T19:07:19.187Z,9.00
2018-04-29T19:09:47.476Z,8.73
2018-04-29T19:12:15.761Z,8.07
2018-04-29T19:14:44.039Z,17.27
2018-04-29T19:17:12.342Z,11.27
2018-04-29T19:19:40.603Z,15.10
2018-04-29T19:22:08.910Z,10.10
2018-04-29T19:24:37.547Z,8.03
2018-04-29T19:27:05.891Z,11.03
2018-04-29T19:29:34.135Z,11.27
2018-04-29T19:32:02.506Z,8.30
2018-04-29T19:34:31.091Z,11.80
2018-04-29T19:36:59.359Z,11.70
2018-04-29T19:39:27.701Z,14.03
2018-04-29T19:41:56.053Z,11.03
2018-04-29T19:44:24.570Z,9.43
2018-04-29T19:46:53.374Z,11.53
2018-04-29T19:49:21.653Z,10.83
2018-04-29T19:51:49.916Z,9.03
2018-04-29T19:54:18.199Z,14.00
2018-04-29T19:56:46.542Z,9.03
2018-04-29T19:59:15.815Z,10.07
2018-04-29T20:01:44.084Z,8.43
2018-04-29T20:04:12.410Z,9.47
2018-04-29T20:06:40.727Z,8.27
2018-04-29T20:09:09.050Z,9.87
2018-04-29T20:11:37.376Z,11.13
2018-04-29T20:14:05.641Z,9.10
2018-04-29T20:16:33.914Z,9.40
2018-04-29T20:19:02.198Z,9.47
2018-04-29T20:21:30.521Z,9.23
2018-04-29T20:23:58.776Z,11.63
2018-04-29T20:26:27.083Z,13.57
2018-04-29T20:28:55.356Z,12.60
2018-04-29T20:31:23.661Z,11.63
2018-04-29T20:33:51.926Z,10.57
2018-04-29T20:36:20.217Z,10.40
2018-04-29T20:38:48.497Z,14.30
2018-04-29T20:41:16.827Z,15.43
2018-04-29T20:43:45.523Z,10.00
2018-04-29T20:46:13.814Z,12.13
2018-04-29T20:48:42.075Z,17.50
2018-04-29T20:51:10.405Z,11.27
2018-04-29T20:53:38.688Z,10.53
2018-04-29T20:56:06.998Z,10.13
2018-04-29T20:58:35.264Z,14.43
2018-04-29T21:01:03.542Z,10.87
2018-04-29T21:03:31.826Z,8.87
2018-04-29T21:06:00.086Z,9.80
2018-04-29T21:08:28.358Z,10.90
2018-04-29T21:10:56.623Z,10.80
2018-04-29T21:13:24.937Z,12.23
2018-04-29T21:15:53.211Z,14.53
2018-04-29T21:18:21.522Z,9.37
2018-04-29T21:20:49.819Z,11.60
2018-04-29T21:23:18.639Z,12.50
2018-04-29T21:25:46.902Z,13.77
2018-04-29T21:28:15.221Z,11.60
2018-04-29T21:30:43.493Z,9.10
2018-04-29T21:33:11.759Z,14.00
2018-04-29T21:35:40.041Z,9.53
2018-04-29T21:38:08.422Z,8.30
2018-04-29T21:40:36.580Z,7.73
2018-04-29T21:43:04.861Z,10.00
2018-04-29T21:45:33.147Z,10.90
2018-04-29T21:48:02.391Z,6.97
2018-04-29T21:50:30.713Z,8.17
2018-04-29T21:52:58.979Z,11.40
2018-04-29T21:55:27.307Z,12.60
2018-04-29T21:57:55.557Z,8.40
2018-04-29T22:00:23.884Z,9.87
2018-04-29T22:02:52.145Z,12.50
2018-04-29T22:05:20.424Z,7.33
2018-04-29T22:07:48.715Z,8.93
2018-04-29T22:10:17.032Z,6.67
2018-04-29T22:12:45.327Z,6.93
2018-04-29T22:15:13.651Z,7.20
2018-04-29T22:17:41.905Z,8.47
2018-04-29T22:20:10.211Z,13.27
2018-04-29T22:22:38.529Z,10.87
2018-04-29T22:25:06.873Z,14.93
2018-04-29T22:27:35.167Z,6.57
2018-04-29T22:30:03.465Z,7.00
2018-04-29T22:32:31.731Z,10.20
2018-04-29T22:35:00.027Z,6.00
2018-04-29T22:37:28.310Z,3.87
2018-04-29T22:39:56.575Z,6.73
2018-04-29T22:42:24.878Z,11.07
2018-04-29T22:44:53.134Z,3.77
2018-04-29T22:47:21.505Z,4.00
2018-04-29T22:49:49.810Z,4.53
2018-04-29T22:52:18.116Z,5.13
2018-04-29T22:54:46.384Z,9.23
2018-04-29T22:57:14.634Z,5.43
2018-04-29T22:59:42.972Z,5.43
2018-04-29T23:02:11.248Z,4.83
2018-04-29T23:04:39.545Z,6.77
2018-04-29T23:07:07.804Z,10.90
2018-04-29T23:09:36.129Z,3.60
2018-04-29T23:12:04.373Z,2.93
2018-04-29T23:14:32.646Z,11.30
2018-04-29T23:17:00.928Z,3.83
2018-04-29T23:19:29.204Z,5.33
2018-04-29T23:21:57.492Z,2.20
2018-04-29T23:24:25.772Z,6.87
2018-04-29T23:26:54.074Z,3.13
2018-04-29T23:29:22.378Z,4.97
2018-04-29T23:31:50.689Z,2.53
2018-04-29T23:34:18.980Z,1.90
2018-04-29T23:36:47.324Z,5.33
2018-04-29T23:39:15.588Z,4.17
2018-04-29T23:41:43.892Z,1.40
2018-04-29T23:44:12.174Z,1.73
2018-04-29T23:46:40.724Z,1.40
2018-04-29T23:49:09.314Z,6.07
2018-04-29T23:51:37.599Z,1.57
2018-04-29T23:54:05.868Z,1.53
2018-04-29T23:56:34.174Z,1.63
2018-04-29T23:59:02.450Z,3.00
